createdAt,value
2023-04-23T00:01:42.753Z,41.01
2023-04-23T00:04:51.749Z,40.70
2023-04-23T00:07:57.324Z,41.07
2023-04-23T00:11:00.910Z,40.65
2023-04-23T00:14:04.132Z,40.19
2023-04-23T00:17:06.986Z,40.84
2023-04-23T00:20:10.518Z,40.95
2023-04-23T00:23:14.713Z,40.58
2023-04-23T00:26:18.597Z,40.67
2023-04-23T00:29:21.589Z,40.88
2023-04-23T00:32:24.548Z,40.96
2023-04-23T00:35:27.295Z,41.25
2023-04-23T00:38:31.497Z,41.85
2023-04-23T00:41:35.548Z,41.75
2023-04-23T00:44:38.548Z,41.64
2023-04-23T00:47:42.103Z,42.03
2023-04-23T00:50:44.860Z,42.49
2023-04-23T00:53:49.388Z,41.94
2023-04-23T00:56:52.298Z,41.69
2023-04-23T00:59:56.863Z,42.34
2023-04-23T01:03:01.549Z,42.10
2023-04-23T01:06:04.810Z,42.03
2023-04-23T01:09:10.021Z,42.36
2023-04-23T01:12:13.560Z,42.27
2023-04-23T01:15:16.652Z,42.64
2023-04-23T01:18:20.178Z,42.84
2023-04-23T01:21:23.574Z,43.11
2023-04-23T01:24:28.112Z,43.94
2023-04-23T01:27:31.283Z,44.81
2023-04-23T01:30:34.710Z,45.26
2023-04-23T01:33:37.832Z,46.54
2023-04-23T01:36:42.333Z,47.31
2023-04-23T01:39:46.617Z,47.43
2023-04-23T01:42:49.756Z,48.77
2023-04-23T01:45:52.739Z,49.83
2023-04-23T01:48:55.873Z,49.90
2023-04-23T01:51:58.638Z,50.64
2023-04-23T01:55:03.121Z,51.83
2023-04-23T01:58:06.230Z,52.29
2023-04-23T02:01:08.945Z,52.22
2023-04-23T02:04:12.979Z,51.99
2023-04-23T02:07:15.764Z,51.97
2023-04-23T02:10:20.710Z,52.72
2023-04-23T02:13:23.613Z,52.82
2023-04-23T02:16:26.703Z,53.24
2023-04-23T02:19:31.810Z,54.78
2023-04-23T02:22:34.729Z,55.47
2023-04-23T02:25:39.715Z,55.58
2023-04-23T02:28:42.439Z,56.11
2023-04-23T02:31:45.344Z,56.20
2023-04-23T02:34:48.245Z,56.67
2023-04-23T02:37:50.994Z,57.29
2023-04-23T02:40:55.191Z,58.07
2023-04-23T02:43:57.888Z,58.64
2023-04-23T02:47:00.818Z,59.26
2023-04-23T02:50:05.998Z,59.64
2023-04-23T02:53:08.864Z,59.72
2023-04-23T02:56:13.079Z,60.41
2023-04-23T02:59:15.948Z,60.59
2023-04-23T03:02:18.773Z,60.41
2023-04-23T03:05:21.719Z,60.82
2023-04-23T03:08:24.468Z,59.79
2023-04-23T03:11:28.664Z,60.40
2023-04-23T03:14:31.502Z,60.77
2023-04-23T03:17:34.417Z,60.36
2023-04-23T03:20:37.644Z,60.06
2023-04-23T03:23:40.389Z,61.29
2023-04-23T03:26:44.575Z,61.64
2023-04-23T03:29:48.076Z,61.17
2023-04-23T03:32:51.719Z,61.27
2023-04-23T03:35:54.569Z,61.35
2023-04-23T03:38:57.331Z,60.59
2023-04-23T03:42:02.086Z,61.23
2023-04-23T03:45:05.672Z,61.59
2023-04-23T03:48:08.637Z,62.59
2023-04-23T03:51:11.458Z,62.33
2023-04-23T03:54:14.159Z,62.59
2023-04-23T03:57:18.365Z,62.89
2023-04-23T04:00:21.659Z,61.64
2023-04-23T04:03:24.623Z,61.99
2023-04-23T04:06:27.716Z,62.02
2023-04-23T04:09:30.650Z,62.07
2023-04-23T04:12:34.885Z,62.38
2023-04-23T04:15:37.575Z,62.13
2023-04-23T04:18:40.568Z,62.18
2023-04-23T04:21:43.394Z,62.79
2023-04-23T04:24:47.452Z,64.15
2023-04-23T04:27:52.009Z,65.58
2023-04-23T04:30:57.511Z,66.43
2023-04-23T04:34:00.861Z,67.61
2023-04-23T04:37:03.668Z,68.80
2023-04-23T04:40:08.306Z,69.98
2023-04-23T04:43:12.875Z,70.71
2023-04-23T04:46:16.154Z,69.01
2023-04-23T04:49:19.720Z,70.23
2023-04-23T04:52:22.630Z,71.58
2023-04-23T04:55:25.410Z,72.59
2023-04-23T04:58:29.666Z,73.10
2023-04-23T05:01:33.296Z,73.36
2023-04-23T05:04:36.192Z,73.76
2023-04-23T05:07:39.019Z,73.51
2023-04-23T05:10:41.762Z,73.70
2023-04-23T05:13:46.477Z,73.53
2023-04-23T05:16:49.228Z,73.55
2023-04-23T05:19:52.154Z,72.15
2023-04-23T05:22:55.044Z,73.01
2023-04-23T05:25:58.667Z,72.97
2023-04-23T05:29:02.875Z,72.93
2023-04-23T05:32:05.718Z,73.12
2023-04-23T05:35:09.341Z,73.71
2023-04-23T05:38:12.190Z,72.17
2023-04-23T05:41:14.925Z,72.86
2023-04-23T05:44:19.132Z,71.78
2023-04-23T05:47:22.312Z,70.89
2023-04-23T05:50:25.301Z,72.72
2023-04-23T05:53:29.205Z,72.99
2023-04-23T05:56:31.926Z,73.44
2023-04-23T05:59:36.294Z,72.90
2023-04-23T06:02:39.319Z,73.42
2023-04-23T06:05:43.321Z,73.91
2023-04-23T06:08:46.191Z,73.75
2023-04-23T06:11:50.485Z,75.48
2023-04-23T06:14:54.872Z,75.40
2023-04-23T06:17:57.816Z,74.58
2023-04-23T06:21:04.276Z,74.25
2023-04-23T06:24:07.495Z,72.47
2023-04-23T06:27:10.181Z,74.50
2023-04-23T06:30:15.093Z,74.55
2023-04-23T06:33:17.976Z,74.06
2023-04-23T06:36:21.112Z,73.61
2023-04-23T06:39:23.956Z,74.42
2023-04-23T06:42:26.757Z,74.46
2023-04-23T06:45:32.021Z,74.81
2023-04-23T06:48:34.797Z,75.50
2023-04-23T06:51:37.705Z,75.29
2023-04-23T06:54:40.955Z,76.12
2023-04-23T06:57:43.772Z,74.95
2023-04-23T07:00:47.975Z,76.31
2023-04-23T07:03:52.346Z,76.63
2023-04-23T07:06:55.457Z,76.70
2023-04-23T07:09:58.372Z,76.97
2023-04-23T07:13:01.557Z,77.53
2023-04-23T07:16:06.003Z,78.15
2023-04-23T07:19:08.707Z,79.23
2023-04-23T07:22:11.426Z,77.76
2023-04-23T07:25:14.260Z,78.35
2023-04-23T07:28:17.027Z,77.11
2023-04-23T07:31:21.295Z,78.01
2023-04-23T07:34:24.024Z,76.52
2023-04-23T07:37:26.972Z,77.20
2023-04-23T07:40:29.830Z,78.16
2023-04-23T07:43:32.540Z,78.16
2023-04-23T07:46:36.887Z,76.22
2023-04-23T07:49:39.976Z,78.40
2023-04-23T07:52:43.041Z,78.74
2023-04-23T07:55:45.905Z,77.97
2023-04-23T07:58:48.609Z,78.16
2023-04-23T08:01:52.982Z,77.50
2023-04-23T08:04:55.984Z,78.96
2023-04-23T08:07:59.123Z,78.91
2023-04-23T08:11:02.036Z,79.24
2023-04-23T08:14:04.782Z,78.69
2023-04-23T08:17:09.069Z,79.33
2023-04-23T08:20:12.337Z,77.57
2023-04-23T08:23:15.190Z,77.48
2023-04-23T08:26:18.161Z,78.50
2023-04-23T08:29:20.873Z,78.24
2023-04-23T08:32:25.085Z,77.91
2023-04-23T08:35:27.822Z,77.82
2023-04-23T08:38:30.704Z,77.73
2023-04-23T08:41:39.548Z,76.26
2023-04-23T08:44:43.880Z,76.11
2023-04-23T08:47:48.156Z,77.56
2023-04-23T08:50:50.928Z,77.66
2023-04-23T08:53:59.426Z,78.99
2023-04-23T08:57:02.696Z,78.40
2023-04-23T09:00:08.101Z,78.21
2023-04-23T09:03:13.085Z,79.16
2023-04-23T09:06:15.917Z,80.91
2023-04-23T09:09:19.617Z,79.88
2023-04-23T09:12:22.569Z,79.09
2023-04-23T09:15:25.281Z,77.09
2023-04-23T09:18:29.775Z,77.84
2023-04-23T09:21:33.284Z,77.48
2023-04-23T09:24:36.293Z,78.46
2023-04-23T09:27:39.456Z,78.60
2023-04-23T09:30:45.173Z,76.21
2023-04-23T09:33:53.602Z,76.25
2023-04-23T09:36:56.379Z,77.41
2023-04-23T09:40:04.342Z,77.40
2023-04-23T09:43:08.243Z,78.33
2023-04-23T09:46:11.750Z,77.06
2023-04-23T09:49:16.629Z,77.13
2023-04-23T09:52:20.469Z,77.84
2023-04-23T09:55:29.717Z,77.71
2023-04-23T09:58:32.605Z,76.52
2023-04-23T10:01:35.350Z,76.44
2023-04-23T10:04:40.900Z,76.25
2023-04-23T10:07:45.223Z,75.81
2023-04-23T10:13:56.096Z,72.42
2023-04-23T10:17:00.399Z,73.20
2023-04-23T10:20:06.182Z,72.94
2023-04-23T10:23:10.466Z,72.44
2023-04-23T10:26:16.935Z,70.81
2023-04-23T10:29:22.993Z,70.46
2023-04-23T10:32:26.889Z,71.09
2023-04-23T10:35:32.312Z,70.83
2023-04-23T10:38:39.307Z,68.33
2023-04-23T10:41:49.484Z,68.18
2023-04-23T10:45:02.672Z,68.78
2023-04-23T10:48:10.920Z,69.17
2023-04-23T10:54:21.945Z,68.94
2023-04-23T10:57:24.952Z,67.68
2023-04-23T11:00:28.275Z,68.99
2023-04-23T11:03:43.059Z,70.23
2023-04-23T11:06:56.675Z,69.44
2023-04-23T11:10:00.808Z,71.26
2023-04-23T11:13:23.866Z,69.10
2023-04-23T11:16:26.859Z,69.70
2023-04-23T11:19:30.190Z,69.72
2023-04-23T11:22:37.820Z,70.01
2023-04-23T11:25:44.716Z,70.96
2023-04-23T11:28:50.208Z,69.59
2023-04-23T11:35:00.621Z,67.72
2023-04-23T11:38:09.562Z,66.82
2023-04-23T11:41:12.450Z,66.46
2023-04-23T11:44:15.821Z,65.52
2023-04-23T11:47:18.778Z,62.06
2023-04-23T11:50:23.318Z,62.70
2023-04-23T11:53:28.125Z,62.02
2023-04-23T11:56:31.708Z,61.23
2023-04-23T11:59:34.531Z,60.79
2023-04-23T12:02:37.289Z,61.44
2023-04-23T12:05:45.404Z,59.09
2023-04-23T12:08:49.730Z,58.20
2023-04-23T12:11:52.843Z,58.50
2023-04-23T12:15:05.115Z,59.95
2023-04-23T12:18:11.752Z,59.93
2023-04-23T12:21:15.364Z,59.14
2023-04-23T12:24:19.414Z,56.69
2023-04-23T12:27:23.255Z,56.88
2023-04-23T12:30:29.862Z,53.47
2023-04-23T12:33:32.862Z,54.85
2023-04-23T12:36:37.357Z,55.57
2023-04-23T12:39:41.658Z,53.53
2023-04-23T12:42:44.716Z,54.25
2023-04-23T12:45:47.677Z,51.66
2023-04-23T12:48:50.392Z,51.36
2023-04-23T12:51:53.352Z,50.77
2023-04-23T12:54:58.982Z,48.58
2023-04-23T12:58:01.791Z,45.48
2023-04-23T13:01:04.670Z,44.13
2023-04-23T13:04:07.819Z,44.26
2023-04-23T13:07:10.705Z,43.31
2023-04-23T13:10:14.818Z,44.46
2023-04-23T13:13:17.692Z,42.01
2023-04-23T13:16:20.659Z,44.82
2023-04-23T13:19:23.326Z,43.37
2023-04-23T13:22:29.161Z,42.88
2023-04-23T13:25:33.304Z,41.74
2023-04-23T13:28:36.668Z,43.67
2023-04-23T13:31:39.494Z,43.55
2023-04-23T13:34:42.256Z,43.09
2023-04-23T13:37:45.070Z,44.60
2023-04-23T13:40:49.179Z,43.02
2023-04-23T13:43:52.788Z,41.57
2023-04-23T13:46:57.226Z,39.71
2023-04-23T13:50:00.291Z,41.39
2023-04-23T13:53:03.097Z,39.19
2023-04-23T13:56:07.439Z,40.16
2023-04-23T13:59:19.502Z,40.03
2023-04-23T14:02:24.059Z,39.95
2023-04-23T14:05:26.919Z,39.99
2023-04-23T14:08:30.013Z,39.63
2023-04-23T14:11:34.428Z,40.32
2023-04-23T14:14:37.346Z,39.75
2023-04-23T14:17:43.026Z,40.01
2023-04-23T14:20:45.796Z,40.30
2023-04-23T14:23:57.267Z,40.10
2023-04-23T14:30:06.318Z,40.82
2023-04-23T14:33:09.297Z,40.09
2023-04-23T14:36:12.040Z,40.89
2023-04-23T14:39:16.335Z,41.55
2023-04-23T14:42:20.403Z,39.63
2023-04-23T14:45:23.217Z,38.35
2023-04-23T14:48:26.027Z,38.28
2023-04-23T14:51:28.780Z,37.80
2023-04-23T14:54:31.636Z,38.91
2023-04-23T14:57:35.691Z,39.25
2023-04-23T15:00:38.583Z,37.40
2023-04-23T15:03:41.857Z,37.70
2023-04-23T15:06:44.597Z,36.66
2023-04-23T15:09:47.474Z,37.29
2023-04-23T15:12:56.806Z,38.03
2023-04-23T15:16:05.712Z,37.84
2023-04-23T15:19:10.126Z,37.10
2023-04-23T15:22:12.963Z,37.04
2023-04-23T15:25:16.550Z,37.17
2023-04-23T15:28:23.565Z,36.58
2023-04-23T15:31:26.493Z,37.27
2023-04-23T15:34:29.346Z,36.84
2023-04-23T15:37:32.055Z,37.98
2023-04-23T15:40:42.115Z,38.46
2023-04-23T15:43:47.284Z,38.78
2023-04-23T15:46:50.155Z,38.97
2023-04-23T15:49:52.834Z,38.57
2023-04-23T15:52:57.622Z,39.05
2023-04-23T15:56:00.504Z,39.04
2023-04-23T15:59:04.605Z,39.00
2023-04-23T16:02:07.561Z,39.20
2023-04-23T16:05:11.584Z,39.14
2023-04-23T16:08:16.342Z,39.15
2023-04-23T16:11:19.404Z,39.46
2023-04-23T16:14:23.494Z,39.70
2023-04-23T16:17:28.082Z,39.32
2023-04-23T16:20:30.950Z,39.79
2023-04-23T16:23:34.391Z,39.51
2023-04-23T16:26:37.554Z,38.88
2023-04-23T16:29:41.925Z,38.98
2023-04-23T16:32:45.044Z,40.09
2023-04-23T16:35:47.869Z,41.15
2023-04-23T16:38:51.659Z,42.13
2023-04-23T16:41:55.850Z,41.64
2023-04-23T16:44:59.900Z,41.74
2023-04-23T16:48:02.736Z,41.83
2023-04-23T16:51:05.700Z,41.83
2023-04-23T16:54:08.603Z,42.72
2023-04-23T16:57:12.772Z,42.62
2023-04-23T17:00:17.908Z,42.67
2023-04-23T17:03:21.050Z,41.65
2023-04-23T17:06:27.665Z,41.39
2023-04-23T17:09:31.756Z,42.47
2023-04-23T17:12:34.591Z,42.89
2023-04-23T17:15:39.129Z,44.15
2023-04-23T17:18:41.969Z,45.42
2023-04-23T17:21:45.153Z,45.00
2023-04-23T17:24:48.061Z,44.59
2023-04-23T17:27:50.879Z,46.22
2023-04-23T17:30:55.869Z,46.19
2023-04-23T17:33:58.862Z,46.37
2023-04-23T17:37:01.560Z,46.29
2023-04-23T17:40:05.966Z,46.99
2023-04-23T17:43:08.901Z,47.83
2023-04-23T17:46:13.070Z,48.96
2023-04-23T17:49:16.025Z,50.00
2023-04-23T17:52:18.735Z,50.55
2023-04-23T17:55:22.082Z,50.49
2023-04-23T17:58:24.966Z,50.10
2023-04-23T18:01:29.161Z,49.90
2023-04-23T18:04:34.985Z,49.74
2023-04-23T18:07:37.937Z,50.59
2023-04-23T18:10:40.904Z,51.08
2023-04-23T18:13:44.016Z,51.42
2023-04-23T18:16:48.131Z,50.53
2023-04-23T18:19:51.399Z,51.38
2023-04-23T18:22:54.749Z,52.16
2023-04-23T18:25:58.619Z,52.96
2023-04-23T18:29:01.479Z,53.95
2023-04-23T18:32:06.262Z,53.82
2023-04-23T18:35:10.074Z,54.48
2023-04-23T18:38:25.109Z,54.40
2023-04-23T18:41:28.998Z,55.71
2023-04-23T18:44:32.474Z,56.22
2023-04-23T18:47:39.554Z,54.42
2023-04-23T18:50:45.238Z,54.09
2023-04-23T18:53:48.851Z,53.66
2023-04-23T18:56:52.872Z,54.73
2023-04-23T18:59:55.727Z,53.99
2023-04-23T19:03:02.795Z,54.14
2023-04-23T19:06:09.472Z,54.82
2023-04-23T19:09:12.187Z,54.37
2023-04-23T19:12:15.030Z,54.50
2023-04-23T19:15:18.131Z,54.85
2023-04-23T19:18:23.195Z,54.91
2023-04-23T19:21:26.155Z,55.91
2023-04-23T19:24:30.556Z,56.19
2023-04-23T19:27:33.390Z,56.75
2023-04-23T19:30:36.305Z,57.01
2023-04-23T19:33:42.735Z,57.40
2023-04-23T19:36:47.799Z,57.56
2023-04-23T19:39:50.593Z,58.20
2023-04-23T19:42:53.442Z,58.09
2023-04-23T19:45:56.358Z,57.58
2023-04-23T19:49:00.544Z,58.10
2023-04-23T19:52:04.957Z,57.98
2023-04-23T19:55:08.754Z,57.63
2023-04-23T19:58:11.877Z,58.48
2023-04-23T20:01:14.796Z,58.64
2023-04-23T20:04:19.025Z,59.13
2023-04-23T20:07:21.965Z,59.99
2023-04-23T20:10:29.104Z,58.77
2023-04-23T20:13:33.067Z,59.06
2023-04-23T20:16:36.087Z,57.57
2023-04-23T20:19:41.040Z,57.17
2023-04-23T20:22:44.019Z,57.47
2023-04-23T20:25:48.005Z,58.44
2023-04-23T20:28:50.867Z,58.08
2023-04-23T20:31:53.601Z,58.47
2023-04-23T20:34:58.966Z,58.53
2023-04-23T20:38:02.053Z,58.58
2023-04-23T20:41:05.192Z,58.53
2023-04-23T20:44:09.096Z,59.67
2023-04-23T20:47:11.857Z,59.69
2023-04-23T20:50:17.536Z,59.91
2023-04-23T20:53:20.469Z,60.29
2023-04-23T20:56:23.171Z,61.08
2023-04-23T20:59:26.000Z,60.40
2023-04-23T21:02:28.837Z,60.52
2023-04-23T21:05:33.136Z,60.98
2023-04-23T21:08:37.920Z,60.91
2023-04-23T21:11:40.962Z,60.85
2023-04-23T21:14:43.904Z,61.65
2023-04-23T21:17:46.606Z,61.04
2023-04-23T21:20:50.804Z,61.35
2023-04-23T21:23:53.511Z,62.36
2023-04-23T21:26:56.369Z,62.06
2023-04-23T21:30:05.796Z,61.96
2023-04-23T21:33:08.721Z,62.24
2023-04-23T21:36:12.892Z,62.89
2023-04-23T21:39:16.268Z,62.29
2023-04-23T21:42:19.209Z,63.45
2023-04-23T21:45:22.026Z,63.01
2023-04-23T21:48:24.892Z,63.49
2023-04-23T21:51:30.006Z,63.34
2023-04-23T21:54:33.109Z,63.25
2023-04-23T21:57:36.421Z,63.41
2023-04-23T22:00:39.647Z,63.08
2023-04-23T22:03:46.938Z,63.44
2023-04-23T22:06:51.313Z,64.03
2023-04-23T22:09:54.285Z,63.86
2023-04-23T22:12:57.223Z,64.30
2023-04-23T22:16:00.302Z,64.31
2023-04-23T22:19:03.905Z,64.43
2023-04-23T22:22:08.262Z,64.41
2023-04-23T22:25:12.938Z,64.86
2023-04-23T22:28:15.666Z,64.96
2023-04-23T22:31:18.614Z,64.68
2023-04-23T22:34:21.342Z,65.22
2023-04-23T22:37:25.559Z,65.05
2023-04-23T22:40:28.286Z,65.35
2023-04-23T22:43:31.120Z,65.30
2023-04-23T22:46:34.028Z,64.81
2023-04-23T22:49:37.216Z,65.38
2023-04-23T22:52:41.526Z,65.70
2023-04-23T22:55:44.210Z,65.51
2023-04-23T22:58:47.014Z,65.80
2023-04-23T23:01:50.097Z,66.48
2023-04-23T23:04:52.977Z,66.52
2023-04-23T23:07:56.993Z,66.36
2023-04-23T23:10:59.943Z,67.02
2023-04-23T23:14:03.021Z,66.78
2023-04-23T23:17:06.834Z,67.09
2023-04-23T23:20:11.689Z,67.04
2023-04-23T23:23:15.926Z,67.90
2023-04-23T23:26:19.925Z,67.37
2023-04-23T23:29:22.851Z,67.46
2023-04-23T23:32:25.604Z,68.16
2023-04-23T23:35:28.473Z,68.18
2023-04-23T23:38:32.653Z,67.84
2023-04-23T23:41:35.380Z,68.33
2023-04-23T23:44:38.203Z,68.28
2023-04-23T23:47:40.987Z,68.39
2023-04-23T23:50:43.834Z,69.29
2023-04-23T23:53:48.032Z,68.65
2023-04-23T23:56:50.722Z,69.10
2023-04-23T23:59:53.573Z,69.19
